sensor_id;sensor_type;location;lat;lon;timestamp;P1;durP1;ratioP1;P2;durP2;ratioP2
2538;SDS011;1280;49.760;9.664;2023-08-17T00:00:50;4.00;;;0.93;;
2538;SDS011;1280;49.760;9.664;2023-08-17T00:03:18;4.67;;;1.30;;
2538;SDS011;1280;49.760;9.664;2023-08-17T00:05:47;4.43;;;1.13;;
2538;SDS011;1280;49.760;9.664;2023-08-17T00:08:15;4.60;;;1.20;;
2538;SDS011;1280;49.760;9.664;2023-08-17T00:10:45;4.33;;;1.20;;
2538;SDS011;1280;49.760;9.664;2023-08-17T00:13:14;3.50;;;1.00;;
2538;SDS011;1280;49.760;9.664;2023-08-17T00:15:42;4.00;;;1.10;;
2538;SDS011;1280;49.760;9.664;2023-08-17T00:18:11;4.60;;;1.10;;
2538;SDS011;1280;49.760;9.664;2023-08-17T00:20:39;4.40;;;1.20;;
2538;SDS011;1280;49.760;9.664;2023-08-17T00:23:07;5.03;;;1.30;;
2538;SDS011;1280;49.760;9.664;2023-08-17T00:25:35;4.40;;;1.13;;
2538;SDS011;1280;49.760;9.664;2023-08-17T00:28:06;3.90;;;1.10;;
2538;SDS011;1280;49.760;9.664;2023-08-17T00:30:34;4.03;;;1.10;;
2538;SDS011;1280;49.760;9.664;2023-08-17T00:33:04;3.80;;;1.10;;
2538;SDS011;1280;49.760;9.664;2023-08-17T00:35:32;9.53;;;1.60;;
2538;SDS011;1280;49.760;9.664;2023-08-17T00:38:00;4.37;;;1.27;;
2538;SDS011;1280;49.760;9.664;2023-08-17T00:40:28;4.27;;;1.10;;
2538;SDS011;1280;49.760;9.664;2023-08-17T00:42:56;4.40;;;1.40;;
2538;SDS011;1280;49.760;9.664;2023-08-17T00:45:26;7.03;;;1.27;;
2538;SDS011;1280;49.760;9.664;2023-08-17T00:47:56;4.90;;;1.30;;
2538;SDS011;1280;49.760;9.664;2023-08-17T00:50:24;7.10;;;1.70;;
2538;SDS011;1280;49.760;9.664;2023-08-17T00:52:54;6.53;;;1.90;;
2538;SDS011;1280;49.760;9.664;2023-08-17T00:55:23;8.63;;;1.47;;
2538;SDS011;1280;49.760;9.664;2023-08-17T00:57:52;4.40;;;1.43;;
2538;SDS011;1280;49.760;9.664;2023-08-17T01:00:22;3.90;;;1.33;;
2538;SDS011;1280;49.760;9.664;2023-08-17T01:02:53;6.87;;;1.70;;
2538;SDS011;1280;49.760;9.664;2023-08-17T01:05:22;8.57;;;1.30;;
2538;SDS011;1280;49.760;9.664;2023-08-17T01:07:53;5.27;;;1.40;;
2538;SDS011;1280;49.760;9.664;2023-08-17T01:10:22;6.60;;;1.90;;
2538;SDS011;1280;49.760;9.664;2023-08-17T01:12:52;5.20;;;1.67;;
2538;SDS011;1280;49.760;9.664;2023-08-17T01:15:30;6.83;;;1.90;;
2538;SDS011;1280;49.760;9.664;2023-08-17T01:18:06;5.00;;;1.83;;
2538;SDS011;1280;49.760;9.664;2023-08-17T01:24:32;5.13;;;1.50;;
2538;SDS011;1280;49.760;9.664;2023-08-17T01:27:02;6.40;;;1.97;;
2538;SDS011;1280;49.760;9.664;2023-08-17T01:29:30;5.80;;;1.77;;
2538;SDS011;1280;49.760;9.664;2023-08-17T01:32:00;4.07;;;1.43;;
2538;SDS011;1280;49.760;9.664;2023-08-17T01:34:35;6.37;;;1.67;;
2538;SDS011;1280;49.760;9.664;2023-08-17T01:37:07;4.60;;;1.60;;
2538;SDS011;1280;49.760;9.664;2023-08-17T01:39:41;4.30;;;1.63;;
2538;SDS011;1280;49.760;9.664;2023-08-17T01:42:13;6.10;;;1.80;;
2538;SDS011;1280;49.760;9.664;2023-08-17T01:44:43;4.80;;;2.07;;
2538;SDS011;1280;49.760;9.664;2023-08-17T01:47:15;5.10;;;1.97;;
2538;SDS011;1280;49.760;9.664;2023-08-17T01:49:47;5.03;;;1.80;;
2538;SDS011;1280;49.760;9.664;2023-08-17T01:52:15;5.23;;;2.00;;
2538;SDS011;1280;49.760;9.664;2023-08-17T01:54:45;4.70;;;2.10;;
2538;SDS011;1280;49.760;9.664;2023-08-17T01:57:13;5.10;;;1.60;;
2538;SDS011;1280;49.760;9.664;2023-08-17T01:59:42;5.57;;;1.90;;
2538;SDS011;1280;49.760;9.664;2023-08-17T02:02:10;5.70;;;1.57;;
2538;SDS011;1280;49.760;9.664;2023-08-17T02:04:40;5.80;;;1.70;;
2538;SDS011;1280;49.760;9.664;2023-08-17T02:07:09;6.17;;;2.17;;
2538;SDS011;1280;49.760;9.664;2023-08-17T02:09:44;5.90;;;2.00;;
2538;SDS011;1280;49.760;9.664;2023-08-17T02:12:13;4.13;;;1.60;;
2538;SDS011;1280;49.760;9.664;2023-08-17T02:14:41;4.40;;;1.87;;
2538;SDS011;1280;49.760;9.664;2023-08-17T02:17:09;7.30;;;2.40;;
2538;SDS011;1280;49.760;9.664;2023-08-17T02:19:37;6.00;;;2.00;;
2538;SDS011;1280;49.760;9.664;2023-08-17T02:22:05;5.13;;;2.30;;
2538;SDS011;1280;49.760;9.664;2023-08-17T02:24:33;5.43;;;1.80;;
2538;SDS011;1280;49.760;9.664;2023-08-17T02:27:03;5.90;;;1.70;;
2538;SDS011;1280;49.760;9.664;2023-08-17T02:29:31;4.93;;;2.20;;
2538;SDS011;1280;49.760;9.664;2023-08-17T02:31:59;5.60;;;2.23;;
2538;SDS011;1280;49.760;9.664;2023-08-17T02:34:27;5.77;;;2.40;;
2538;SDS011;1280;49.760;9.664;2023-08-17T02:36:55;4.60;;;2.10;;
2538;SDS011;1280;49.760;9.664;2023-08-17T02:39:23;5.77;;;2.10;;
2538;SDS011;1280;49.760;9.664;2023-08-17T02:41:52;5.07;;;2.03;;
2538;SDS011;1280;49.760;9.664;2023-08-17T02:44:21;5.87;;;2.23;;
2538;SDS011;1280;49.760;9.664;2023-08-17T02:46:50;5.90;;;1.80;;
2538;SDS011;1280;49.760;9.664;2023-08-17T02:49:19;4.10;;;1.67;;
2538;SDS011;1280;49.760;9.664;2023-08-17T02:51:48;6.37;;;2.10;;
2538;SDS011;1280;49.760;9.664;2023-08-17T02:54:17;6.00;;;2.20;;
2538;SDS011;1280;49.760;9.664;2023-08-17T02:56:45;6.00;;;2.40;;
2538;SDS011;1280;49.760;9.664;2023-08-17T02:59:13;5.67;;;2.17;;
2538;SDS011;1280;49.760;9.664;2023-08-17T03:01:43;5.70;;;2.47;;
2538;SDS011;1280;49.760;9.664;2023-08-17T03:04:12;6.03;;;2.00;;
2538;SDS011;1280;49.760;9.664;2023-08-17T03:06:40;5.23;;;2.10;;
2538;SDS011;1280;49.760;9.664;2023-08-17T03:09:08;6.77;;;2.97;;
2538;SDS011;1280;49.760;9.664;2023-08-17T03:11:37;5.70;;;1.90;;
2538;SDS011;1280;49.760;9.664;2023-08-17T03:14:05;6.90;;;2.30;;
2538;SDS011;1280;49.760;9.664;2023-08-17T03:16:33;8.17;;;2.57;;
2538;SDS011;1280;49.760;9.664;2023-08-17T03:19:03;4.87;;;2.40;;
2538;SDS011;1280;49.760;9.664;2023-08-17T03:21:33;9.23;;;3.20;;
2538;SDS011;1280;49.760;9.664;2023-08-17T03:24:01;6.37;;;2.60;;
2538;SDS011;1280;49.760;9.664;2023-08-17T03:26:29;5.00;;;2.20;;
2538;SDS011;1280;49.760;9.664;2023-08-17T03:28:57;5.20;;;2.53;;
2538;SDS011;1280;49.760;9.664;2023-08-17T03:31:26;6.10;;;2.43;;
2538;SDS011;1280;49.760;9.664;2023-08-17T03:33:56;4.87;;;2.30;;
2538;SDS011;1280;49.760;9.664;2023-08-17T03:36:27;6.57;;;2.40;;
2538;SDS011;1280;49.760;9.664;2023-08-17T03:38:55;5.70;;;2.53;;
2538;SDS011;1280;49.760;9.664;2023-08-17T03:41:24;7.23;;;3.10;;
2538;SDS011;1280;49.760;9.664;2023-08-17T03:43:52;5.80;;;3.00;;
2538;SDS011;1280;49.760;9.664;2023-08-17T03:46:20;4.90;;;2.43;;
2538;SDS011;1280;49.760;9.664;2023-08-17T03:48:49;5.97;;;2.30;;
2538;SDS011;1280;49.760;9.664;2023-08-17T03:51:17;7.40;;;3.03;;
2538;SDS011;1280;49.760;9.664;2023-08-17T03:53:46;5.93;;;2.60;;
2538;SDS011;1280;49.760;9.664;2023-08-17T03:56:14;7.60;;;3.10;;
2538;SDS011;1280;49.760;9.664;2023-08-17T03:58:42;5.50;;;2.53;;
2538;SDS011;1280;49.760;9.664;2023-08-17T04:01:10;6.73;;;2.63;;
2538;SDS011;1280;49.760;9.664;2023-08-17T04:03:41;5.53;;;2.53;;
2538;SDS011;1280;49.760;9.664;2023-08-17T04:06:09;8.47;;;3.00;;
2538;SDS011;1280;49.760;9.664;2023-08-17T04:08:37;4.80;;;2.47;;
2538;SDS011;1280;49.760;9.664;2023-08-17T04:11:07;6.63;;;2.70;;
2538;SDS011;1280;49.760;9.664;2023-08-17T04:13:35;5.97;;;2.63;;
2538;SDS011;1280;49.760;9.664;2023-08-17T04:16:03;7.80;;;3.13;;
2538;SDS011;1280;49.760;9.664;2023-08-17T04:18:32;5.60;;;2.23;;
2538;SDS011;1280;49.760;9.664;2023-08-17T04:21:01;7.07;;;2.63;;
2538;SDS011;1280;49.760;9.664;2023-08-17T04:23:30;8.63;;;2.90;;
2538;SDS011;1280;49.760;9.664;2023-08-17T04:25:58;7.77;;;3.60;;
2538;SDS011;1280;49.760;9.664;2023-08-17T04:28:29;8.50;;;3.90;;
2538;SDS011;1280;49.760;9.664;2023-08-17T04:30:57;8.60;;;4.00;;
2538;SDS011;1280;49.760;9.664;2023-08-17T04:33:31;8.37;;;4.70;;
2538;SDS011;1280;49.760;9.664;2023-08-17T04:35:59;7.40;;;3.97;;
2538;SDS011;1280;49.760;9.664;2023-08-17T04:38:27;8.13;;;4.63;;
2538;SDS011;1280;49.760;9.664;2023-08-17T04:40:56;7.90;;;4.30;;
2538;SDS011;1280;49.760;9.664;2023-08-17T04:43:25;11.73;;;4.20;;
2538;SDS011;1280;49.760;9.664;2023-08-17T04:45:54;5.93;;;3.57;;
2538;SDS011;1280;49.760;9.664;2023-08-17T04:48:23;7.57;;;4.00;;
2538;SDS011;1280;49.760;9.664;2023-08-17T04:50:51;9.07;;;4.23;;
2538;SDS011;1280;49.760;9.664;2023-08-17T04:53:19;6.77;;;3.80;;
2538;SDS011;1280;49.760;9.664;2023-08-17T04:55:49;7.57;;;3.90;;
2538;SDS011;1280;49.760;9.664;2023-08-17T04:58:17;8.17;;;5.60;;
2538;SDS011;1280;49.760;9.664;2023-08-17T05:00:46;7.70;;;4.80;;
2538;SDS011;1280;49.760;9.664;2023-08-17T05:03:15;7.63;;;4.30;;
2538;SDS011;1280;49.760;9.664;2023-08-17T05:05:59;7.40;;;4.60;;
2538;SDS011;1280;49.760;9.664;2023-08-17T05:08:27;8.10;;;4.00;;
2538;SDS011;1280;49.760;9.664;2023-08-17T05:10:55;7.60;;;4.70;;
2538;SDS011;1280;49.760;9.664;2023-08-17T05:13:25;6.80;;;4.03;;
2538;SDS011;1280;49.760;9.664;2023-08-17T05:15:56;8.83;;;4.67;;
2538;SDS011;1280;49.760;9.664;2023-08-17T05:18:26;9.00;;;4.30;;
2538;SDS011;1280;49.760;9.664;2023-08-17T05:20:54;7.07;;;3.83;;
2538;SDS011;1280;49.760;9.664;2023-08-17T05:23:22;6.70;;;4.37;;
2538;SDS011;1280;49.760;9.664;2023-08-17T05:25:51;26.57;;;4.00;;
2538;SDS011;1280;49.760;9.664;2023-08-17T05:28:20;7.20;;;3.60;;
2538;SDS011;1280;49.760;9.664;2023-08-17T05:30:48;8.17;;;3.73;;
2538;SDS011;1280;49.760;9.664;2023-08-17T05:33:16;24.03;;;18.23;;
2538;SDS011;1280;49.760;9.664;2023-08-17T05:35:46;17.20;;;12.43;;
2538;SDS011;1280;49.760;9.664;2023-08-17T05:38:20;8.70;;;4.83;;
2538;SDS011;1280;49.760;9.664;2023-08-17T05:40:53;7.50;;;3.63;;
2538;SDS011;1280;49.760;9.664;2023-08-17T05:43:22;10.30;;;4.10;;
2538;SDS011;1280;49.760;9.664;2023-08-17T05:45:51;8.07;;;4.77;;
2538;SDS011;1280;49.760;9.664;2023-08-17T05:48:19;6.70;;;3.90;;
2538;SDS011;1280;49.760;9.664;2023-08-17T05:50:49;6.67;;;3.60;;
2538;SDS011;1280;49.760;9.664;2023-08-17T05:53:17;8.20;;;3.80;;
2538;SDS011;1280;49.760;9.664;2023-08-17T05:55:45;7.30;;;3.40;;
2538;SDS011;1280;49.760;9.664;2023-08-17T05:58:13;10.03;;;4.03;;
2538;SDS011;1280;49.760;9.664;2023-08-17T06:00:41;7.60;;;3.67;;
2538;SDS011;1280;49.760;9.664;2023-08-17T06:03:09;7.10;;;3.80;;
2538;SDS011;1280;49.760;9.664;2023-08-17T06:05:39;8.83;;;4.13;;
2538;SDS011;1280;49.760;9.664;2023-08-17T06:08:08;9.70;;;4.03;;
2538;SDS011;1280;49.760;9.664;2023-08-17T06:10:44;7.13;;;4.13;;
2538;SDS011;1280;49.760;9.664;2023-08-17T06:13:13;7.00;;;3.73;;
2538;SDS011;1280;49.760;9.664;2023-08-17T06:15:41;9.00;;;3.80;;
2538;SDS011;1280;49.760;9.664;2023-08-17T06:18:10;9.00;;;4.70;;
2538;SDS011;1280;49.760;9.664;2023-08-17T06:20:38;9.43;;;4.37;;
2538;SDS011;1280;49.760;9.664;2023-08-17T06:23:06;8.07;;;4.50;;
2538;SDS011;1280;49.760;9.664;2023-08-17T06:25:35;7.40;;;5.07;;
2538;SDS011;1280;49.760;9.664;2023-08-17T06:28:05;9.73;;;5.73;;
2538;SDS011;1280;49.760;9.664;2023-08-17T06:30:33;11.47;;;4.43;;
2538;SDS011;1280;49.760;9.664;2023-08-17T06:33:01;9.63;;;5.13;;
2538;SDS011;1280;49.760;9.664;2023-08-17T06:35:31;7.97;;;4.80;;
2538;SDS011;1280;49.760;9.664;2023-08-17T06:37:59;12.03;;;5.00;;
2538;SDS011;1280;49.760;9.664;2023-08-17T06:40:27;7.47;;;3.97;;
2538;SDS011;1280;49.760;9.664;2023-08-17T06:42:57;9.20;;;5.03;;
2538;SDS011;1280;49.760;9.664;2023-08-17T06:45:25;7.70;;;4.77;;
2538;SDS011;1280;49.760;9.664;2023-08-17T06:47:54;8.10;;;4.30;;
2538;SDS011;1280;49.760;9.664;2023-08-17T06:50:22;7.90;;;4.50;;
2538;SDS011;1280;49.760;9.664;2023-08-17T06:52:50;9.27;;;4.27;;
2538;SDS011;1280;49.760;9.664;2023-08-17T06:55:18;7.33;;;4.03;;
2538;SDS011;1280;49.760;9.664;2023-08-17T06:57:46;8.27;;;4.60;;
2538;SDS011;1280;49.760;9.664;2023-08-17T07:00:17;7.43;;;4.77;;
2538;SDS011;1280;49.760;9.664;2023-08-17T07:02:46;11.40;;;4.70;;
2538;SDS011;1280;49.760;9.664;2023-08-17T07:05:21;8.87;;;5.63;;
2538;SDS011;1280;49.760;9.664;2023-08-17T07:07:50;8.10;;;5.27;;
2538;SDS011;1280;49.760;9.664;2023-08-17T07:10:19;8.43;;;4.90;;
2538;SDS011;1280;49.760;9.664;2023-08-17T07:12:47;9.47;;;5.33;;
2538;SDS011;1280;49.760;9.664;2023-08-17T07:15:15;9.50;;;5.63;;
2538;SDS011;1280;49.760;9.664;2023-08-17T07:17:44;10.90;;;6.13;;
2538;SDS011;1280;49.760;9.664;2023-08-17T07:20:12;9.50;;;6.50;;
2538;SDS011;1280;49.760;9.664;2023-08-17T07:22:42;8.63;;;6.13;;
2538;SDS011;1280;49.760;9.664;2023-08-17T07:25:11;10.83;;;7.07;;
2538;SDS011;1280;49.760;9.664;2023-08-17T07:27:39;7.97;;;5.93;;
2538;SDS011;1280;49.760;9.664;2023-08-17T07:30:08;7.80;;;5.40;;
2538;SDS011;1280;49.760;9.664;2023-08-17T07:32:37;7.80;;;5.30;;
2538;SDS011;1280;49.760;9.664;2023-08-17T07:35:06;8.93;;;6.37;;
2538;SDS011;1280;49.760;9.664;2023-08-17T07:37:35;10.30;;;5.80;;
2538;SDS011;1280;49.760;9.664;2023-08-17T07:40:03;9.30;;;6.77;;
2538;SDS011;1280;49.760;9.664;2023-08-17T07:42:33;10.43;;;6.23;;
2538;SDS011;1280;49.760;9.664;2023-08-17T07:45:02;12.77;;;6.70;;
2538;SDS011;1280;49.760;9.664;2023-08-17T07:47:33;10.20;;;6.40;;
2538;SDS011;1280;49.760;9.664;2023-08-17T07:50:02;8.40;;;6.53;;
2538;SDS011;1280;49.760;9.664;2023-08-17T07:52:31;8.80;;;5.43;;
2538;SDS011;1280;49.760;9.664;2023-08-17T07:55:01;11.30;;;6.30;;
2538;SDS011;1280;49.760;9.664;2023-08-17T07:57:29;9.47;;;4.57;;
2538;SDS011;1280;49.760;9.664;2023-08-17T07:59:57;16.03;;;5.80;;
2538;SDS011;1280;49.760;9.664;2023-08-17T08:02:25;10.90;;;5.77;;
2538;SDS011;1280;49.760;9.664;2023-08-17T08:04:53;9.27;;;6.50;;
2538;SDS011;1280;49.760;9.664;2023-08-17T08:07:22;12.43;;;6.10;;
2538;SDS011;1280;49.760;9.664;2023-08-17T08:09:52;8.17;;;6.10;;
2538;SDS011;1280;49.760;9.664;2023-08-17T08:12:20;11.60;;;8.10;;
2538;SDS011;1280;49.760;9.664;2023-08-17T08:14:48;9.33;;;5.20;;
2538;SDS011;1280;49.760;9.664;2023-08-17T08:17:17;8.70;;;6.63;;
2538;SDS011;1280;49.760;9.664;2023-08-17T08:19:46;12.87;;;7.50;;
2538;SDS011;1280;49.760;9.664;2023-08-17T08:22:14;10.37;;;6.20;;
2538;SDS011;1280;49.760;9.664;2023-08-17T08:24:42;10.23;;;7.07;;
2538;SDS011;1280;49.760;9.664;2023-08-17T08:27:13;10.07;;;5.53;;
2538;SDS011;1280;49.760;9.664;2023-08-17T08:29:41;9.17;;;6.17;;
2538;SDS011;1280;49.760;9.664;2023-08-17T08:32:09;8.40;;;5.93;;
2538;SDS011;1280;49.760;9.664;2023-08-17T08:34:40;8.40;;;6.27;;
2538;SDS011;1280;49.760;9.664;2023-08-17T08:37:08;9.20;;;6.03;;
2538;SDS011;1280;49.760;9.664;2023-08-17T08:39:47;10.70;;;5.70;;
2538;SDS011;1280;49.760;9.664;2023-08-17T08:42:18;11.33;;;6.90;;
2538;SDS011;1280;49.760;9.664;2023-08-17T08:44:46;12.00;;;6.40;;
2538;SDS011;1280;49.760;9.664;2023-08-17T08:47:17;17.50;;;7.00;;
2538;SDS011;1280;49.760;9.664;2023-08-17T08:49:49;10.47;;;6.80;;
2538;SDS011;1280;49.760;9.664;2023-08-17T08:52:32;8.67;;;6.50;;
2538;SDS011;1280;49.760;9.664;2023-08-17T08:55:08;9.33;;;5.77;;
2538;SDS011;1280;49.760;9.664;2023-08-17T08:57:40;12.10;;;7.70;;
2538;SDS011;1280;49.760;9.664;2023-08-17T09:00:11;9.27;;;6.20;;
2538;SDS011;1280;49.760;9.664;2023-08-17T09:02:40;9.40;;;6.10;;
2538;SDS011;1280;49.760;9.664;2023-08-17T09:05:10;8.77;;;5.97;;
2538;SDS011;1280;49.760;9.664;2023-08-17T09:07:38;7.77;;;5.17;;
2538;SDS011;1280;49.760;9.664;2023-08-17T09:10:07;8.73;;;6.40;;
2538;SDS011;1280;49.760;9.664;2023-08-17T09:12:36;10.23;;;5.50;;
2538;SDS011;1280;49.760;9.664;2023-08-17T09:15:08;14.73;;;6.77;;
2538;SDS011;1280;49.760;9.664;2023-08-17T09:17:37;11.20;;;6.33;;
2538;SDS011;1280;49.760;9.664;2023-08-17T09:20:06;7.37;;;5.33;;
2538;SDS011;1280;49.760;9.664;2023-08-17T09:22:39;8.90;;;5.70;;
2538;SDS011;1280;49.760;9.664;2023-08-17T09:25:08;10.23;;;6.70;;
2538;SDS011;1280;49.760;9.664;2023-08-17T09:27:36;9.57;;;6.60;;
2538;SDS011;1280;49.760;9.664;2023-08-17T09:30:05;18.23;;;7.13;;
2538;SDS011;1280;49.760;9.664;2023-08-17T09:32:36;9.00;;;6.87;;
2538;SDS011;1280;49.760;9.664;2023-08-17T09:35:05;21.10;;;6.77;;
2538;SDS011;1280;49.760;9.664;2023-08-17T09:37:34;9.07;;;6.60;;
2538;SDS011;1280;49.760;9.664;2023-08-17T09:40:02;8.93;;;6.43;;
2538;SDS011;1280;49.760;9.664;2023-08-17T09:42:34;11.20;;;7.07;;
2538;SDS011;1280;49.760;9.664;2023-08-17T09:45:02;12.43;;;6.90;;
2538;SDS011;1280;49.760;9.664;2023-08-17T09:47:31;9.63;;;6.73;;
2538;SDS011;1280;49.760;9.664;2023-08-17T09:50:00;9.60;;;7.30;;
2538;SDS011;1280;49.760;9.664;2023-08-17T09:52:37;9.90;;;6.50;;
2538;SDS011;1280;49.760;9.664;2023-08-17T09:55:06;12.33;;;6.43;;
2538;SDS011;1280;49.760;9.664;2023-08-17T09:57:37;11.30;;;7.30;;
2538;SDS011;1280;49.760;9.664;2023-08-17T10:00:06;12.43;;;6.57;;
2538;SDS011;1280;49.760;9.664;2023-08-17T10:02:36;11.07;;;6.50;;
2538;SDS011;1280;49.760;9.664;2023-08-17T10:05:05;10.20;;;7.20;;
2538;SDS011;1280;49.760;9.664;2023-08-17T10:07:38;9.67;;;7.10;;
2538;SDS011;1280;49.760;9.664;2023-08-17T10:10:11;11.43;;;6.00;;
2538;SDS011;1280;49.760;9.664;2023-08-17T10:12:42;10.63;;;6.97;;
2538;SDS011;1280;49.760;9.664;2023-08-17T10:15:16;11.03;;;7.13;;
2538;SDS011;1280;49.760;9.664;2023-08-17T10:17:50;10.17;;;6.70;;
2538;SDS011;1280;49.760;9.664;2023-08-17T10:20:27;9.73;;;7.33;;
2538;SDS011;1280;49.760;9.664;2023-08-17T10:23:00;11.80;;;7.20;;
2538;SDS011;1280;49.760;9.664;2023-08-17T10:25:38;12.27;;;7.60;;
2538;SDS011;1280;49.760;9.664;2023-08-17T10:28:08;8.37;;;6.80;;
2538;SDS011;1280;49.760;9.664;2023-08-17T10:30:36;10.73;;;7.23;;
2538;SDS011;1280;49.760;9.664;2023-08-17T10:33:05;12.00;;;7.40;;
2538;SDS011;1280;49.760;9.664;2023-08-17T10:35:35;9.23;;;6.57;;
2538;SDS011;1280;49.760;9.664;2023-08-17T10:38:05;9.23;;;6.40;;
2538;SDS011;1280;49.760;9.664;2023-08-17T10:40:37;11.73;;;7.30;;
2538;SDS011;1280;49.760;9.664;2023-08-17T10:43:07;11.50;;;7.03;;
2538;SDS011;1280;49.760;9.664;2023-08-17T10:45:35;10.00;;;7.13;;
2538;SDS011;1280;49.760;9.664;2023-08-17T10:50:59;13.50;;;6.87;;
2538;SDS011;1280;49.760;9.664;2023-08-17T10:53:35;11.70;;;9.57;;
2538;SDS011;1280;49.760;9.664;2023-08-17T10:56:11;10.53;;;8.00;;
2538;SDS011;1280;49.760;9.664;2023-08-17T10:58:42;13.53;;;6.87;;
2538;SDS011;1280;49.760;9.664;2023-08-17T11:01:11;8.93;;;6.80;;
2538;SDS011;1280;49.760;9.664;2023-08-17T11:03:41;9.77;;;7.10;;
2538;SDS011;1280;49.760;9.664;2023-08-17T11:06:17;8.40;;;6.60;;
2538;SDS011;1280;49.760;9.664;2023-08-17T11:08:55;9.87;;;7.20;;
2538;SDS011;1280;49.760;9.664;2023-08-17T11:11:25;10.00;;;6.90;;
2538;SDS011;1280;49.760;9.664;2023-08-17T11:13:58;10.03;;;6.30;;
2538;SDS011;1280;49.760;9.664;2023-08-17T11:16:26;13.40;;;7.10;;
2538;SDS011;1280;49.760;9.664;2023-08-17T11:18:55;10.23;;;7.17;;
2538;SDS011;1280;49.760;9.664;2023-08-17T11:21:26;9.20;;;6.70;;
2538;SDS011;1280;49.760;9.664;2023-08-17T11:23:57;11.30;;;7.50;;
2538;SDS011;1280;49.760;9.664;2023-08-17T11:26:25;11.20;;;6.73;;
2538;SDS011;1280;49.760;9.664;2023-08-17T11:28:54;11.80;;;6.33;;
2538;SDS011;1280;49.760;9.664;2023-08-17T11:31:22;9.73;;;6.80;;
2538;SDS011;1280;49.760;9.664;2023-08-17T11:33:50;10.80;;;7.03;;
2538;SDS011;1280;49.760;9.664;2023-08-17T11:36:22;10.57;;;6.77;;
2538;SDS011;1280;49.760;9.664;2023-08-17T11:38:52;10.80;;;7.30;;
2538;SDS011;1280;49.760;9.664;2023-08-17T11:41:20;11.33;;;6.90;;
2538;SDS011;1280;49.760;9.664;2023-08-17T11:43:50;11.40;;;7.17;;
2538;SDS011;1280;49.760;9.664;2023-08-17T11:53:09;14.47;;;7.07;;
2538;SDS011;1280;49.760;9.664;2023-08-17T11:55:46;10.23;;;6.90;;
2538;SDS011;1280;49.760;9.664;2023-08-17T11:58:14;13.27;;;7.37;;
2538;SDS011;1280;49.760;9.664;2023-08-17T12:00:44;10.33;;;7.00;;
2538;SDS011;1280;49.760;9.664;2023-08-17T12:03:15;8.87;;;6.80;;
2538;SDS011;1280;49.760;9.664;2023-08-17T12:05:44;9.47;;;7.03;;
2538;SDS011;1280;49.760;9.664;2023-08-17T12:08:12;10.57;;;7.50;;
2538;SDS011;1280;49.760;9.664;2023-08-17T12:17:22;10.03;;;7.00;;
2538;SDS011;1280;49.760;9.664;2023-08-17T12:19:54;10.87;;;7.27;;
2538;SDS011;1280;49.760;9.664;2023-08-17T12:22:23;13.83;;;7.40;;
2538;SDS011;1280;49.760;9.664;2023-08-17T12:24:53;12.00;;;7.03;;
2538;SDS011;1280;49.760;9.664;2023-08-17T12:27:21;9.87;;;7.67;;
2538;SDS011;1280;49.760;9.664;2023-08-17T12:29:51;10.60;;;6.60;;
2538;SDS011;1280;49.760;9.664;2023-08-17T12:32:19;10.83;;;7.43;;
2538;SDS011;1280;49.760;9.664;2023-08-17T12:34:49;8.20;;;6.30;;
2538;SDS011;1280;49.760;9.664;2023-08-17T12:37:18;11.40;;;8.30;;
2538;SDS011;1280;49.760;9.664;2023-08-17T12:39:47;10.03;;;8.00;;
2538;SDS011;1280;49.760;9.664;2023-08-17T12:42:16;10.40;;;8.17;;
2538;SDS011;1280;49.760;9.664;2023-08-17T12:44:44;10.00;;;7.40;;
2538;SDS011;1280;49.760;9.664;2023-08-17T12:47:12;11.57;;;7.63;;
2538;SDS011;1280;49.760;9.664;2023-08-17T12:49:40;12.20;;;7.57;;
2538;SDS011;1280;49.760;9.664;2023-08-17T12:52:10;13.10;;;8.30;;
2538;SDS011;1280;49.760;9.664;2023-08-17T12:54:38;8.80;;;6.90;;
2538;SDS011;1280;49.760;9.664;2023-08-17T12:57:05;9.90;;;6.67;;
2538;SDS011;1280;49.760;9.664;2023-08-17T12:59:38;11.00;;;8.00;;
2538;SDS011;1280;49.760;9.664;2023-08-17T13:02:06;10.33;;;7.60;;
2538;SDS011;1280;49.760;9.664;2023-08-17T13:04:34;11.00;;;7.53;;
2538;SDS011;1280;49.760;9.664;2023-08-17T13:07:02;13.73;;;7.57;;
2538;SDS011;1280;49.760;9.664;2023-08-17T13:09:32;10.40;;;7.50;;
2538;SDS011;1280;49.760;9.664;2023-08-17T13:12:01;11.30;;;7.10;;
2538;SDS011;1280;49.760;9.664;2023-08-17T13:14:29;12.23;;;7.57;;
2538;SDS011;1280;49.760;9.664;2023-08-17T13:16:57;10.23;;;6.97;;
2538;SDS011;1280;49.760;9.664;2023-08-17T13:19:25;9.43;;;6.80;;
2538;SDS011;1280;49.760;9.664;2023-08-17T13:21:53;9.47;;;7.47;;
2538;SDS011;1280;49.760;9.664;2023-08-17T13:24:21;9.60;;;7.30;;
2538;SDS011;1280;49.760;9.664;2023-08-17T13:26:50;11.20;;;7.27;;
2538;SDS011;1280;49.760;9.664;2023-08-17T13:29:20;10.37;;;7.20;;
2538;SDS011;1280;49.760;9.664;2023-08-17T13:31:48;12.13;;;8.40;;
2538;SDS011;1280;49.760;9.664;2023-08-17T13:34:16;12.13;;;7.20;;
2538;SDS011;1280;49.760;9.664;2023-08-17T13:36:44;14.33;;;8.27;;
2538;SDS011;1280;49.760;9.664;2023-08-17T13:39:12;10.80;;;6.30;;
2538;SDS011;1280;49.760;9.664;2023-08-17T13:41:42;12.73;;;6.77;;
2538;SDS011;1280;49.760;9.664;2023-08-17T13:44:11;9.77;;;6.80;;
2538;SDS011;1280;49.760;9.664;2023-08-17T13:46:39;10.30;;;7.00;;
2538;SDS011;1280;49.760;9.664;2023-08-17T13:49:07;12.20;;;6.60;;
2538;SDS011;1280;49.760;9.664;2023-08-17T13:51:35;8.23;;;6.17;;
2538;SDS011;1280;49.760;9.664;2023-08-17T13:54:03;11.60;;;7.13;;
2538;SDS011;1280;49.760;9.664;2023-08-17T13:56:31;11.07;;;6.07;;
2538;SDS011;1280;49.760;9.664;2023-08-17T13:58:59;8.43;;;5.43;;
2538;SDS011;1280;49.760;9.664;2023-08-17T14:01:30;9.83;;;6.27;;
2538;SDS011;1280;49.760;9.664;2023-08-17T14:03:58;9.10;;;6.27;;
2538;SDS011;1280;49.760;9.664;2023-08-17T14:06:26;9.03;;;6.20;;
2538;SDS011;1280;49.760;9.664;2023-08-17T14:08:54;8.90;;;5.97;;
2538;SDS011;1280;49.760;9.664;2023-08-17T14:11:24;10.13;;;6.90;;
2538;SDS011;1280;49.760;9.664;2023-08-17T14:13:52;10.30;;;6.13;;
2538;SDS011;1280;49.760;9.664;2023-08-17T14:16:20;10.30;;;6.43;;
2538;SDS011;1280;49.760;9.664;2023-08-17T14:18:49;9.90;;;5.53;;
2538;SDS011;1280;49.760;9.664;2023-08-17T14:21:17;9.83;;;5.80;;
2538;SDS011;1280;49.760;9.664;2023-08-17T14:23:45;9.37;;;6.00;;
2538;SDS011;1280;49.760;9.664;2023-08-17T14:26:13;12.73;;;8.90;;
2538;SDS011;1280;49.760;9.664;2023-08-17T14:28:42;20.90;;;15.57;;
2538;SDS011;1280;49.760;9.664;2023-08-17T14:31:10;22.87;;;19.53;;
2538;SDS011;1280;49.760;9.664;2023-08-17T14:33:42;25.77;;;18.57;;
2538;SDS011;1280;49.760;9.664;2023-08-17T14:36:11;36.60;;;27.13;;
2538;SDS011;1280;49.760;9.664;2023-08-17T14:38:45;26.47;;;20.47;;
2538;SDS011;1280;49.760;9.664;2023-08-17T14:41:13;19.17;;;14.97;;
2538;SDS011;1280;49.760;9.664;2023-08-17T14:43:41;26.70;;;20.03;;
2538;SDS011;1280;49.760;9.664;2023-08-17T14:46:09;30.70;;;20.87;;
2538;SDS011;1280;49.760;9.664;2023-08-17T14:48:40;24.00;;;17.63;;
2538;SDS011;1280;49.760;9.664;2023-08-17T14:51:08;24.83;;;17.67;;
2538;SDS011;1280;49.760;9.664;2023-08-17T14:53:38;23.03;;;13.80;;
2538;SDS011;1280;49.760;9.664;2023-08-17T14:56:06;20.13;;;10.43;;
2538;SDS011;1280;49.760;9.664;2023-08-17T14:58:34;11.57;;;7.93;;
2538;SDS011;1280;49.760;9.664;2023-08-17T15:01:03;13.37;;;8.10;;
2538;SDS011;1280;49.760;9.664;2023-08-17T15:03:32;17.57;;;8.70;;
2538;SDS011;1280;49.760;9.664;2023-08-17T15:06:00;10.83;;;8.33;;
2538;SDS011;1280;49.760;9.664;2023-08-17T15:08:28;13.10;;;8.33;;
2538;SDS011;1280;49.760;9.664;2023-08-17T15:10:57;12.20;;;8.53;;
2538;SDS011;1280;49.760;9.664;2023-08-17T15:13:28;11.10;;;7.93;;
2538;SDS011;1280;49.760;9.664;2023-08-17T15:15:56;11.20;;;8.00;;
2538;SDS011;1280;49.760;9.664;2023-08-17T15:18:24;9.80;;;7.50;;
2538;SDS011;1280;49.760;9.664;2023-08-17T15:20:54;11.33;;;8.80;;
2538;SDS011;1280;49.760;9.664;2023-08-17T15:23:22;16.53;;;8.90;;
2538;SDS011;1280;49.760;9.664;2023-08-17T15:25:50;17.20;;;8.43;;
2538;SDS011;1280;49.760;9.664;2023-08-17T15:28:19;13.13;;;9.37;;
2538;SDS011;1280;49.760;9.664;2023-08-17T15:30:49;15.50;;;8.70;;
2538;SDS011;1280;49.760;9.664;2023-08-17T15:33:26;10.50;;;8.53;;
2538;SDS011;1280;49.760;9.664;2023-08-17T15:35:54;10.10;;;7.97;;
2538;SDS011;1280;49.760;9.664;2023-08-17T15:38:24;12.63;;;7.87;;
2538;SDS011;1280;49.760;9.664;2023-08-17T15:40:53;8.07;;;6.93;;
2538;SDS011;1280;49.760;9.664;2023-08-17T15:43:22;9.07;;;7.10;;